This is the latest recevied weather packets stored in our database for station/object W7TRD. If no packets are shown the sender has not sent any weather packets the latest 10 day(s).
| Time | Temp. | Humidity | Pressure | Rain* | Wind** | Luminosity | Snow |
|---|---|---|---|---|---|---|---|
| 1777671318 | 22.78° C | 52% | 1016.2 hPa | 0 mm | - | 577 W/m² | - |
| 1777671015 | 23.33° C | 49% | 1016.4 hPa | 0 mm | - | 535 W/m² | - |
| 1777670710 | 23.33° C | 49% | 1016.3 hPa | 0 mm | - | 599 W/m² | - |
| 1777670408 | 22.78° C | 48% | 1016.6 hPa | 0 mm | - | 620 W/m² | - |
| 1777670105 | 22.78° C | 49% | 1016.5 hPa | 0 mm | - | 663 W/m² | - |
| 1777669803 | 22.22° C | 49% | 1016.5 hPa | 0 mm | - | 615 W/m² | - |
| 1777669498 | 22.78° C | 49% | 1016.6 hPa | 0 mm | - | 647 W/m² | - |
| 1777669195 | 22.78° C | 51% | 1016.7 hPa | 0 mm | - | 535 W/m² | - |
| 1777668892 | 22.78° C | 49% | 1016.6 hPa | 0 mm | - | 677 W/m² | - |
| 1777668590 | 22.22° C | 52% | 1016.6 hPa | 0 mm | - | 608 W/m² | - |
| 1777668285 | 21.67° C | 53% | 1016.7 hPa | 0 mm | - | 594 W/m² | - |
| 1777667982 | 22.78° C | 52% | 1016.8 hPa | 0 mm | - | 498 W/m² | - |
| 1777667678 | 22.22° C | 53% | 1016.8 hPa | 0 mm | - | 716 W/m² | - |
| 1777667376 | 22.78° C | 54% | 1016.9 hPa | 0 mm | - | 681 W/m² | - |
| 1777667073 | 21.67° C | 55% | 1016.9 hPa | 0 mm | - | 516 W/m² | - |
| 1777666769 | 21.11° C | 56% | 1017 hPa | 0 mm | - | 672 W/m² | - |
| 1777666466 | 21.67° C | 55% | 1017 hPa | 0 mm | - | 717 W/m² | - |
| 1777666163 | 21.67° C | 53% | 1017.3 hPa | 0 mm | - | 709 W/m² | - |
| 1777665860 | 21.67° C | 54% | 1017 hPa | 0 mm | - | 323 W/m² | - |
| 1777665558 | 20.56° C | 57% | 1017.1 hPa | 0 mm | - | 732 W/m² | - |
| 1777665255 | 21.11° C | 56% | 1017 hPa | 0 mm | - | 355 W/m² | - |
| 1777664950 | 21.11° C | 56% | 1017.4 hPa | 0 mm | - | 502 W/m² | - |
| 1777664646 | 21.11° C | 55% | 1017.1 hPa | 0 mm | - | 324 W/m² | - |
| 1777664342 | 20.56° C | 54% | 1017.3 hPa | 0 mm | - | 840 W/m² | - |
| 1777664041 | 21.11° C | 57% | 1017.1 hPa | 0 mm | - | 365 W/m² | - |
* Rain latest hour (hover to see other rain measurements)
** Current wind speed in m/s (hover to see current wind gust speed)